WIDD/BTH METAR and TAF weather

Enter ICAO airport designator
Station Type Date Time Source
WIDD METAR 2019/11/15 05:30 UTC NOAA

WIDD 150530Z 34002KT 9999 FEW014 29/24 Q1012 NOSIG


Station Type Date Time Source
WIDD Decoded METAR 2019/11/15 05:30 UTC NOAA

Station name not available
Nov 15, 2019 - 12:30 AM EST / 2019.11.15 0530 UTC
Wind: from the NNW (340 degrees) at 2 MPH (2 KT):0
Visibility: greater than 7 mile(s):0
Sky conditions: mostly clear
Temperature: 84 F (29 C)
Dew Point: 75 F (24 C)
Relative Humidity: 74%
Pressure (altimeter): 29.88 in. Hg (1012 hPa)
ob: WIDD 150530Z 34002KT 9999 FEW014 29/24 Q1012 NOSIG
cycle: 5

Station Type Date Time Source
WIDD TAF 2019/11/15 06:00 UTC NOAA

TAF WIDD 150500Z 1506/1606 33004KT 9999 SCT014 PROB30
TEMPO 1506/1508 5000 -TSRA FEW014CB

Example: see airport list